createdAt,value
2024-03-12T00:00:32.368Z,79.26635742
2024-03-12T00:01:33.175Z,79.37011719
2024-03-12T00:02:33.877Z,79.37011719
2024-03-12T00:03:34.705Z,79.37011719
2024-03-12T00:04:35.452Z,79.47387695
2024-03-12T00:05:36.222Z,79.47387695
2024-03-12T00:06:37.034Z,79.57763672
2024-03-12T00:07:38.079Z,79.57763672
2024-03-12T00:09:09.249Z,79.68139648
2024-03-12T00:10:10.468Z,79.78515625
2024-03-12T00:11:11.381Z,79.92553711
2024-03-12T00:12:12.146Z,80.12695313
2024-03-12T00:13:12.983Z,80.33447266
2024-03-12T00:14:13.509Z,80.43823242
2024-03-12T00:15:14.196Z,80.33447266
2024-03-12T00:16:14.934Z,80.43823242
2024-03-12T00:17:15.600Z,80.54199219
2024-03-12T00:18:16.290Z,80.54199219
2024-03-12T00:19:17.182Z,80.54199219
2024-03-12T00:20:17.810Z,79.82177734
2024-03-12T00:21:18.469Z,79.19921875
2024-03-12T00:22:19.244Z,78.99780273
2024-03-12T00:23:19.932Z,79.1015625
2024-03-12T00:24:20.609Z,78.89404297
2024-03-12T00:25:21.318Z,78.7902832
2024-03-12T00:26:21.890Z,78.7902832
2024-03-12T00:27:22.523Z,78.68652344
2024-03-12T00:28:23.184Z,78.7902832
2024-03-12T00:29:23.818Z,78.58276367
2024-03-12T00:30:24.645Z,78.68652344
2024-03-12T00:31:25.235Z,78.68652344
2024-03-12T00:32:25.906Z,78.68652344
2024-03-12T00:33:27.307Z,78.58276367
2024-03-12T00:34:28.465Z,78.37524414
2024-03-12T00:35:30.009Z,78.27758789
2024-03-12T00:36:31.698Z,77.96630859
2024-03-12T00:37:32.727Z,77.96630859
2024-03-12T00:38:33.746Z,77.96630859
2024-03-12T00:39:34.756Z,78.17382813
2024-03-12T00:40:36.091Z,78.17382813
2024-03-12T00:41:37.907Z,78.21044922
2024-03-12T00:43:09.941Z,78.21044922
2024-03-12T00:44:11.185Z,78.21044922
2024-03-12T00:45:11.819Z,78.30810547
2024-03-12T00:46:12.653Z,78.515625
2024-03-12T00:47:13.420Z,78.515625
2024-03-12T00:48:14.704Z,78.515625
2024-03-12T00:49:14.802Z,78.61938477
2024-03-12T00:50:15.529Z,78.515625
2024-03-12T00:51:16.076Z,78.61938477
2024-03-12T00:52:16.890Z,78.72314453
2024-03-12T00:53:17.839Z,78.61938477
2024-03-12T00:54:18.441Z,78.515625
2024-03-12T00:55:19.046Z,78.515625
2024-03-12T00:56:19.766Z,78.515625
2024-03-12T00:57:20.400Z,78.72314453
2024-03-12T00:58:21.410Z,78.72314453
2024-03-12T00:59:21.740Z,78.61938477
2024-03-12T01:00:22.469Z,78.61938477
2024-03-12T01:01:23.316Z,78.72314453
2024-03-12T01:02:23.743Z,78.72314453
2024-03-12T01:03:24.424Z,78.8269043
2024-03-12T01:04:24.966Z,78.96728516
2024-03-12T01:05:25.596Z,78.86352539
2024-03-12T01:06:26.193Z,78.96728516
2024-03-12T01:07:26.734Z,78.96728516
2024-03-12T01:08:27.451Z,78.96728516
2024-03-12T01:09:28.136Z,78.96728516
2024-03-12T01:10:28.716Z,78.86352539
2024-03-12T01:11:29.435Z,78.96728516
2024-03-12T01:12:30.731Z,79.07104492
2024-03-12T01:13:31.321Z,79.07104492
2024-03-12T01:14:31.920Z,78.96728516
2024-03-12T01:15:32.611Z,78.86352539
2024-03-12T01:16:33.194Z,78.86352539
2024-03-12T01:17:33.851Z,78.86352539
2024-03-12T01:18:34.680Z,78.96728516
2024-03-12T01:19:35.240Z,79.07104492
2024-03-12T01:20:36.360Z,78.96728516
2024-03-12T01:21:36.532Z,78.86352539
2024-03-12T01:23:08.121Z,78.86352539
2024-03-12T01:24:08.601Z,78.75976563
2024-03-12T01:25:09.265Z,78.75976563
2024-03-12T01:26:09.796Z,78.86352539
2024-03-12T01:27:10.387Z,79.07104492
2024-03-12T01:28:11.034Z,79.3762207
2024-03-12T01:29:11.942Z,79.62036133
2024-03-12T01:30:12.645Z,79.4128418
2024-03-12T01:31:13.373Z,79.4128418
2024-03-12T01:32:13.970Z,79.62036133
2024-03-12T01:33:14.609Z,79.62036133
2024-03-12T01:34:15.342Z,79.62036133
2024-03-12T01:35:16.119Z,79.58374023
2024-03-12T01:36:16.641Z,79.4128418
2024-03-12T01:37:17.334Z,79.47998047
2024-03-12T01:38:17.980Z,79.3762207
2024-03-12T01:39:18.769Z,79.17480469
2024-03-12T01:40:19.464Z,79.07104492
2024-03-12T01:41:20.092Z,78.86352539
2024-03-12T01:42:20.713Z,78.90014648
2024-03-12T01:43:21.359Z,78.79638672
2024-03-12T01:44:22.020Z,78.79638672
2024-03-12T01:45:22.634Z,79.00390625
2024-03-12T01:46:23.248Z,79.21142578
2024-03-12T01:47:23.933Z,79.21142578
2024-03-12T01:48:24.646Z,79.30908203
2024-03-12T01:49:25.342Z,79.30908203
2024-03-12T01:50:26.344Z,79.30908203
2024-03-12T01:51:26.767Z,79.62036133
2024-03-12T01:52:27.429Z,79.51660156
2024-03-12T01:53:28.037Z,79.51660156
2024-03-12T01:54:28.702Z,79.30908203
2024-03-12T01:55:29.236Z,79.21142578
2024-03-12T01:56:30.440Z,79.21142578
2024-03-12T01:57:31.185Z,79.30908203
2024-03-12T01:58:31.975Z,79.4128418
2024-03-12T01:59:32.583Z,79.30908203
2024-03-12T02:00:33.349Z,79.30908203
2024-03-12T02:01:34.231Z,79.10766602
2024-03-12T02:02:34.718Z,78.90014648
2024-03-12T02:03:35.367Z,79.14428711
2024-03-12T02:04:35.942Z,79.00390625
2024-03-12T02:06:07.090Z,78.38134766
2024-03-12T02:07:08.123Z,78.38134766
2024-03-12T02:08:08.654Z,78.72924805
2024-03-12T02:09:09.319Z,78.83300781
2024-03-12T02:10:10.193Z,78.62548828
2024-03-12T02:11:10.752Z,78.62548828
2024-03-12T02:12:11.410Z,78.52172852
2024-03-12T02:13:12.120Z,78.52172852
2024-03-12T02:14:12.712Z,78.72924805
2024-03-12T02:15:13.350Z,78.83300781
2024-03-12T02:16:14.048Z,78.93676758
2024-03-12T02:17:14.605Z,78.62548828
2024-03-12T02:18:15.329Z,78.62548828
2024-03-12T02:19:15.825Z,78.72924805
2024-03-12T02:20:16.530Z,78.93676758
2024-03-12T02:21:17.125Z,78.93676758
2024-03-12T02:22:17.908Z,78.93676758
2024-03-12T02:23:18.613Z,79.04052734
2024-03-12T02:24:19.585Z,79.04052734
2024-03-12T02:25:20.213Z,78.83300781
2024-03-12T02:26:20.972Z,78.83300781
2024-03-12T02:27:21.640Z,78.83300781
2024-03-12T02:28:22.242Z,78.93676758
2024-03-12T02:29:22.920Z,79.04052734
2024-03-12T02:30:23.732Z,79.04052734
2024-03-12T02:31:24.258Z,78.93676758
2024-03-12T02:32:25.116Z,78.83300781
2024-03-12T02:33:25.761Z,78.62548828
2024-03-12T02:34:26.399Z,78.83300781
2024-03-12T02:35:27.155Z,79.14428711
2024-03-12T02:36:27.826Z,79.34570313
2024-03-12T02:37:28.383Z,79.24804688
2024-03-12T02:38:29.007Z,79.24804688
2024-03-12T02:39:29.732Z,79.24804688
2024-03-12T02:40:30.758Z,79.34570313
2024-03-12T02:41:31.484Z,79.58984375
2024-03-12T02:42:32.110Z,79.65698242
2024-03-12T02:43:32.685Z,79.76074219
2024-03-12T02:44:33.334Z,80.00488281
2024-03-12T02:45:34.034Z,80.00488281
2024-03-12T02:46:34.600Z,80.10864258
2024-03-12T02:47:35.206Z,79.96826172
2024-03-12T02:49:06.714Z,79.76074219
2024-03-12T02:50:07.320Z,79.55322266
2024-03-12T02:51:07.963Z,79.55322266
2024-03-12T02:52:08.731Z,79.34570313
2024-03-12T02:53:09.271Z,79.34570313
2024-03-12T02:54:09.936Z,79.44946289
2024-03-12T02:55:10.795Z,79.44946289
2024-03-12T02:56:11.235Z,79.55322266
2024-03-12T02:57:11.852Z,79.76074219
2024-03-12T02:58:12.570Z,79.86450195
2024-03-12T02:59:13.148Z,79.76074219
2024-03-12T03:00:15.471Z,79.24804688
2024-03-12T03:01:14.776Z,78.79638672
2024-03-12T03:02:15.337Z,78.27758789
2024-03-12T03:03:16.230Z,77.97241211
2024-03-12T03:04:16.808Z,77.86865234
2024-03-12T03:05:17.473Z,77.97241211
2024-03-12T03:06:18.129Z,78.07617188
2024-03-12T03:07:18.774Z,78.27758789
2024-03-12T03:08:19.424Z,78.27758789
2024-03-12T03:09:20.097Z,78.27758789
2024-03-12T03:10:20.842Z,78.48510742
2024-03-12T03:11:21.412Z,78.69262695
2024-03-12T03:12:22.063Z,78.69262695
2024-03-12T03:13:22.652Z,78.79638672
2024-03-12T03:14:23.342Z,78.93676758
2024-03-12T03:15:24.136Z,79.10766602
2024-03-12T03:16:24.676Z,78.79638672
2024-03-12T03:17:25.380Z,78.38134766
2024-03-12T03:18:26.015Z,78.17993164
2024-03-12T03:19:26.549Z,78.17993164
2024-03-12T03:20:27.210Z,78.38134766
2024-03-12T03:21:27.818Z,78.72924805
2024-03-12T03:22:28.415Z,79.24804688
2024-03-12T03:23:29.136Z,79.65698242
2024-03-12T03:24:30.286Z,79.55322266
2024-03-12T03:25:30.944Z,79.44946289
2024-03-12T03:26:31.629Z,79.76074219
2024-03-12T03:27:32.318Z,80.07202148
2024-03-12T03:28:32.984Z,80.37719727
2024-03-12T03:30:06.054Z,80.37719727
2024-03-12T03:31:06.781Z,80.17578125
2024-03-12T03:32:07.348Z,79.86450195
2024-03-12T03:33:08.011Z,79.76074219
2024-03-12T03:34:08.632Z,79.65698242
2024-03-12T03:35:09.192Z,79.55322266
2024-03-12T03:36:09.823Z,79.51660156
2024-03-12T03:37:10.784Z,79.51660156
2024-03-12T03:38:11.282Z,79.51660156
2024-03-12T03:39:11.887Z,79.51660156
2024-03-12T03:40:13.012Z,79.51660156
2024-03-12T03:41:13.137Z,79.4128418
2024-03-12T03:42:13.716Z,79.51660156
2024-03-12T03:43:14.424Z,79.51660156
2024-03-12T03:44:15.553Z,79.72412109
2024-03-12T03:45:15.644Z,79.62036133
2024-03-12T03:46:16.223Z,79.62036133
2024-03-12T03:47:16.972Z,79.62036133
2024-03-12T03:48:17.618Z,79.72412109
2024-03-12T03:49:18.249Z,79.72412109
2024-03-12T03:50:19.029Z,79.93164063
2024-03-12T03:51:19.627Z,79.9987793
2024-03-12T03:52:20.203Z,79.9987793
2024-03-12T03:53:20.847Z,79.89501953
2024-03-12T03:54:21.477Z,79.89501953
2024-03-12T03:55:22.108Z,79.89501953
2024-03-12T03:56:22.738Z,79.9987793
2024-03-12T03:57:23.318Z,79.9987793
2024-03-12T03:58:23.997Z,80.10253906
2024-03-12T03:59:24.679Z,80.13916016
2024-03-12T04:00:25.398Z,80.34057617
2024-03-12T04:01:26.052Z,80.34057617
2024-03-12T04:02:26.552Z,80.44433594
2024-03-12T04:03:27.215Z,80.65185547
2024-03-12T04:04:27.746Z,80.65185547
2024-03-12T04:05:28.520Z,80.61523438
2024-03-12T04:06:29.235Z,80.51147461
2024-03-12T04:07:30.369Z,80.30395508
2024-03-12T04:08:30.982Z,80.10253906
2024-03-12T04:09:31.641Z,79.79125977
2024-03-12T04:10:32.447Z,79.6875
2024-03-12T04:11:33.188Z,79.79125977
2024-03-12T04:12:33.833Z,79.89501953
2024-03-12T04:13:34.927Z,79.75463867
2024-03-12T04:15:05.915Z,79.54711914
2024-03-12T04:16:06.637Z,79.33959961
2024-03-12T04:17:07.300Z,79.33959961
2024-03-12T04:18:08.142Z,79.33959961
2024-03-12T04:19:08.765Z,79.33959961
2024-03-12T04:20:09.363Z,79.58374023
2024-03-12T04:21:09.996Z,79.65087891
2024-03-12T04:22:10.753Z,79.6875
2024-03-12T04:23:11.375Z,79.79125977
2024-03-12T04:24:12.261Z,79.6875
2024-03-12T04:25:12.854Z,79.79125977
2024-03-12T04:26:13.453Z,79.89501953
2024-03-12T04:27:14.235Z,79.9987793
2024-03-12T04:28:15.230Z,80.20019531
2024-03-12T04:29:15.849Z,80.10253906
2024-03-12T04:30:16.616Z,80.10253906
2024-03-12T04:31:17.282Z,80.20019531
2024-03-12T04:32:18.043Z,80.20019531
2024-03-12T04:33:18.985Z,80.20019531
2024-03-12T04:34:19.427Z,80.20019531
2024-03-12T04:35:20.474Z,79.89501953
2024-03-12T04:36:21.279Z,79.79125977
2024-03-12T04:37:22.046Z,79.89501953
2024-03-12T04:38:23.086Z,79.79125977
2024-03-12T04:39:23.817Z,79.6875
2024-03-12T04:40:24.680Z,79.6875
2024-03-12T04:41:25.308Z,79.58374023
2024-03-12T04:42:25.930Z,79.58374023
2024-03-12T04:43:26.695Z,79.6875
2024-03-12T04:44:27.311Z,79.89501953
2024-03-12T04:45:28.195Z,79.9987793
2024-03-12T04:46:28.816Z,80.10253906
2024-03-12T04:47:29.718Z,80.10253906
2024-03-12T04:48:30.952Z,80.30395508
2024-03-12T04:49:31.606Z,80.61523438
2024-03-12T04:50:32.256Z,80.82275391
2024-03-12T04:51:32.991Z,80.82275391
2024-03-12T04:52:33.733Z,81.12792969
2024-03-12T04:54:05.044Z,81.23168945
2024-03-12T04:55:05.794Z,81.12792969
2024-03-12T04:56:06.464Z,81.33544922
2024-03-12T04:57:07.135Z,81.54296875
2024-03-12T04:58:07.964Z,81.64672852
2024-03-12T04:59:08.576Z,81.75048828
2024-03-12T05:00:09.266Z,81.85424805
2024-03-12T05:01:10.141Z,81.95800781
2024-03-12T05:02:10.882Z,82.05566406
2024-03-12T05:03:11.526Z,82.15942383
2024-03-12T05:04:18.140Z,82.26318359
2024-03-12T05:05:13.333Z,82.33032227
2024-03-12T05:06:14.331Z,82.43408203
2024-03-12T05:07:15.561Z,82.73925781
2024-03-12T05:08:16.135Z,82.73925781
2024-03-12T05:09:16.879Z,82.84301758
2024-03-12T05:10:17.732Z,83.05053711
2024-03-12T05:11:18.631Z,83.15429688
2024-03-12T05:12:19.582Z,83.05053711
2024-03-12T05:13:20.366Z,83.05053711
2024-03-12T05:14:21.324Z,83.15429688
2024-03-12T05:15:22.028Z,83.15429688
2024-03-12T05:16:25.449Z,83.46557617
2024-03-12T05:17:23.521Z,83.66699219
2024-03-12T05:18:24.168Z,83.66699219
2024-03-12T05:19:24.823Z,83.66699219
2024-03-12T05:20:25.500Z,83.87451172
2024-03-12T05:21:28.015Z,83.97827148
2024-03-12T05:22:26.962Z,83.97827148
2024-03-12T05:23:27.583Z,83.87451172
2024-03-12T05:24:28.303Z,84.08203125
2024-03-12T05:25:29.057Z,84.08203125
2024-03-12T05:26:29.941Z,84.28955078
2024-03-12T05:27:31.070Z,84.39331055
2024-03-12T05:28:31.760Z,84.39331055
2024-03-12T05:29:32.362Z,84.28955078
2024-03-12T05:30:33.173Z,84.4909668
2024-03-12T05:31:34.326Z,84.69848633
2024-03-12T05:33:05.428Z,84.80224609
2024-03-12T05:34:06.069Z,84.69848633
2024-03-12T05:35:06.723Z,84.80224609
2024-03-12T05:36:07.484Z,85.00976563
2024-03-12T05:37:08.225Z,85.00976563
2024-03-12T05:38:08.858Z,85.21728516
2024-03-12T05:39:09.648Z,85.41870117
2024-03-12T05:40:10.565Z,85.41870117
2024-03-12T05:41:11.108Z,85.41870117
2024-03-12T05:42:11.795Z,85.52246094
2024-03-12T05:43:12.513Z,85.87036133
2024-03-12T05:44:13.026Z,85.97412109
2024-03-12T05:45:13.578Z,85.87036133
2024-03-12T05:46:14.292Z,85.97412109
2024-03-12T05:47:14.962Z,86.18164063
2024-03-12T05:48:15.552Z,85.97412109
2024-03-12T05:49:16.265Z,86.07788086
2024-03-12T05:50:16.827Z,85.87036133
2024-03-12T05:51:17.467Z,85.77270508
2024-03-12T05:52:18.114Z,85.66894531
2024-03-12T05:53:18.753Z,85.66894531
2024-03-12T05:54:19.425Z,85.66894531
2024-03-12T05:55:20.070Z,85.66894531
2024-03-12T05:56:20.684Z,85.91308594
2024-03-12T05:57:21.297Z,86.0168457
2024-03-12T05:58:21.932Z,86.12060547
2024-03-12T05:59:22.514Z,86.32202148
2024-03-12T06:00:23.093Z,86.52954102
2024-03-12T06:01:23.791Z,86.63330078
2024-03-12T06:02:24.436Z,86.52954102
2024-03-12T06:03:25.093Z,86.42578125
2024-03-12T06:04:25.703Z,86.12060547
2024-03-12T06:05:26.293Z,86.22436523
2024-03-12T06:06:26.828Z,86.42578125
2024-03-12T06:07:27.406Z,86.63330078
2024-03-12T06:08:27.932Z,86.70043945
2024-03-12T06:09:28.663Z,86.70043945
2024-03-12T06:10:29.232Z,86.7980957
2024-03-12T06:11:30.435Z,86.7980957
2024-03-12T06:12:31.164Z,86.70043945
2024-03-12T06:13:31.961Z,86.90185547
2024-03-12T06:14:32.409Z,87.04833984
2024-03-12T06:15:33.034Z,87.00561523
2024-03-12T06:17:04.230Z,87.04833984
2024-03-12T06:18:04.861Z,86.90185547
2024-03-12T06:19:05.780Z,86.90185547
2024-03-12T06:20:07.972Z,87.00561523
2024-03-12T06:21:06.943Z,87.00561523
2024-03-12T06:22:07.616Z,86.90185547
2024-03-12T06:23:08.124Z,86.84082031
2024-03-12T06:24:08.710Z,86.94458008
2024-03-12T06:25:09.479Z,86.94458008
2024-03-12T06:26:09.960Z,87.15209961
2024-03-12T06:27:10.506Z,87.04833984
2024-03-12T06:28:11.184Z,87.15209961
2024-03-12T06:29:11.701Z,87.04833984
2024-03-12T06:30:12.448Z,87.15209961
2024-03-12T06:31:13.183Z,87.15209961
2024-03-12T06:32:13.673Z,87.04833984
2024-03-12T06:33:14.457Z,87.04833984
2024-03-12T06:34:15.088Z,87.15209961
2024-03-12T06:35:15.573Z,87.25585938
2024-03-12T06:36:16.158Z,87.15209961
2024-03-12T06:37:16.840Z,87.31689453
2024-03-12T06:38:17.506Z,87.21313477
2024-03-12T06:39:17.963Z,87.00561523
2024-03-12T06:40:48.725Z,86.90185547
2024-03-12T06:42:19.708Z,87.00561523
2024-03-12T06:43:20.385Z,86.94458008
2024-03-12T06:44:20.966Z,87.04833984
2024-03-12T06:45:21.613Z,87.21313477
2024-03-12T06:46:22.380Z,87.35351563
2024-03-12T06:47:22.961Z,87.15209961
2024-03-12T06:48:23.554Z,87.25585938
2024-03-12T06:49:24.155Z,87.15209961
2024-03-12T06:50:24.796Z,87.25585938
2024-03-12T06:51:25.445Z,87.21313477
2024-03-12T06:52:28.268Z,86.90185547
2024-03-12T06:53:28.849Z,86.59667969
2024-03-12T06:54:29.819Z,86.90185547
2024-03-12T06:55:30.862Z,87.00561523
2024-03-12T06:56:31.553Z,86.59667969
2024-03-12T06:57:32.174Z,86.7980957
2024-03-12T06:58:33.248Z,86.90185547
2024-03-12T07:00:04.443Z,86.90185547
2024-03-12T07:01:05.138Z,87.00561523
2024-03-12T07:02:05.751Z,86.90185547
2024-03-12T07:03:06.472Z,87.109375
2024-03-12T07:04:07.086Z,87.21313477
2024-03-12T07:05:07.898Z,87.21313477
2024-03-12T07:06:08.691Z,87.109375
2024-03-12T07:07:09.482Z,87.109375
2024-03-12T07:08:10.074Z,87.21313477
2024-03-12T07:09:13.630Z,87.4206543
2024-03-12T07:10:11.486Z,87.4206543
2024-03-12T07:11:12.146Z,87.4206543
2024-03-12T07:12:12.803Z,87.62817383
2024-03-12T07:13:13.659Z,87.82958984
2024-03-12T07:14:14.214Z,87.82958984
2024-03-12T07:15:14.875Z,87.93334961
2024-03-12T07:16:15.602Z,87.93334961
2024-03-12T07:17:16.244Z,87.72583008
2024-03-12T07:18:17.135Z,87.52441406
2024-03-12T07:19:17.836Z,87.62817383
2024-03-12T07:20:18.549Z,87.72583008
2024-03-12T07:21:19.292Z,87.52441406
2024-03-12T07:22:20.023Z,87.31689453
2024-03-12T07:23:20.695Z,87.4206543
2024-03-12T07:24:21.425Z,87.31689453
2024-03-12T07:25:22.269Z,87.52441406
2024-03-12T07:26:22.897Z,87.62817383
2024-03-12T07:27:23.666Z,87.52441406
2024-03-12T07:28:25.161Z,87.109375
2024-03-12T07:29:25.015Z,87.00561523
2024-03-12T07:30:25.702Z,87.00561523
2024-03-12T07:31:26.471Z,86.86523438
2024-03-12T07:32:27.244Z,86.65771484
2024-03-12T07:33:28.208Z,86.59667969
2024-03-12T07:34:28.838Z,86.7980957
2024-03-12T07:35:29.611Z,86.55395508
2024-03-12T07:36:30.806Z,86.55395508
2024-03-12T07:37:31.501Z,86.55395508
2024-03-12T07:38:32.159Z,86.24267578
2024-03-12T07:40:03.474Z,86.24267578
2024-03-12T07:41:04.224Z,86.04125977
2024-03-12T07:42:04.913Z,86.04125977
2024-03-12T07:43:05.946Z,86.04125977
2024-03-12T07:44:06.294Z,86.04125977
2024-03-12T07:45:06.953Z,86.14501953
2024-03-12T07:46:07.599Z,85.83374023
2024-03-12T07:47:08.294Z,85.52246094
2024-03-12T07:48:08.980Z,85.52246094
2024-03-12T07:49:11.346Z,85.41870117
2024-03-12T07:50:10.618Z,85.31494141
2024-03-12T07:51:11.272Z,84.80224609
2024-03-12T07:52:12.045Z,84.4909668
2024-03-12T07:53:12.717Z,84.765625
2024-03-12T07:54:13.426Z,83.87451172
2024-03-12T07:55:14.451Z,84.39331055
2024-03-12T07:56:14.934Z,84.18579102
2024-03-12T07:57:17.578Z,84.28955078
2024-03-12T07:58:16.425Z,84.39331055
2024-03-12T07:59:17.223Z,84.39331055
2024-03-12T08:00:18.504Z,84.04541016
2024-03-12T08:01:18.751Z,84.14306641
2024-03-12T08:02:19.335Z,84.24682617
2024-03-12T08:03:20.035Z,84.14306641
2024-03-12T08:04:20.729Z,83.94165039
2024-03-12T08:05:21.276Z,83.94165039
2024-03-12T08:06:21.921Z,84.04541016
2024-03-12T08:07:22.589Z,84.24682617
2024-03-12T08:08:23.425Z,84.35058594
2024-03-12T08:09:24.100Z,84.24682617
2024-03-12T08:10:25.048Z,84.35058594
2024-03-12T08:11:25.715Z,84.4543457
2024-03-12T08:12:26.404Z,84.35058594
2024-03-12T08:13:27.124Z,83.94165039
2024-03-12T08:14:27.916Z,83.73413086
2024-03-12T08:15:28.756Z,83.01391602
2024-03-12T08:16:29.425Z,83.11767578
2024-03-12T08:17:30.817Z,83.52661133
2024-03-12T08:18:31.724Z,83.89892578
2024-03-12T08:20:02.940Z,83.89892578
2024-03-12T08:21:03.952Z,84.31396484
2024-03-12T08:22:04.880Z,84.21020508
2024-03-12T08:23:05.810Z,83.38623047
2024-03-12T08:24:06.659Z,83.48999023
2024-03-12T08:25:08.042Z,83.65478516
2024-03-12T08:26:08.844Z,83.14208984
2024-03-12T08:27:09.719Z,83.14208984
2024-03-12T08:28:10.685Z,82.69042969
2024-03-12T08:29:11.489Z,81.97021484
2024-03-12T08:30:12.550Z,81.66503906
2024-03-12T08:31:19.335Z,81.14624023
2024-03-12T08:32:14.552Z,81.04858398
2024-03-12T08:33:15.294Z,81.25
2024-03-12T08:34:16.224Z,81.04858398
2024-03-12T08:35:16.909Z,81.14624023
2024-03-12T08:36:17.689Z,80.63354492
2024-03-12T08:37:18.741Z,80.32836914
2024-03-12T08:38:19.551Z,80.52978516
2024-03-12T08:39:20.312Z,81.04858398
2024-03-12T08:40:21.435Z,81.25
2024-03-12T08:41:22.108Z,81.14624023
2024-03-12T08:42:22.985Z,80.32836914
2024-03-12T08:43:23.739Z,79.91333008
2024-03-12T08:44:24.611Z,79.6081543
2024-03-12T08:45:25.316Z,79.40063477
2024-03-12T08:46:26.226Z,79.19311523
2024-03-12T08:47:26.972Z,79.08935547
2024-03-12T08:48:27.888Z,79.19311523
2024-03-12T08:49:28.927Z,78.99169922
2024-03-12T08:50:30.502Z,78.88793945
2024-03-12T08:51:32.183Z,79.50439453
2024-03-12T08:53:03.626Z,79.50439453
2024-03-12T08:54:04.433Z,79.08935547
2024-03-12T08:55:05.402Z,79.05273438
2024-03-12T08:56:06.019Z,78.4362793
2024-03-12T08:57:07.014Z,78.33251953
2024-03-12T08:58:07.953Z,78.54003906
2024-03-12T08:59:08.738Z,78.33251953
2024-03-12T09:00:09.991Z,78.33251953
2024-03-12T09:01:10.933Z,78.23486328
2024-03-12T09:02:11.878Z,78.13110352
2024-03-12T09:03:12.761Z,78.02734375
2024-03-12T09:04:13.836Z,77.92358398
2024-03-12T09:05:14.822Z,78.02734375
2024-03-12T09:06:15.701Z,78.09448242
2024-03-12T09:07:16.666Z,77.67944336
2024-03-12T09:08:17.468Z,76.86157227
2024-03-12T09:09:18.397Z,76.79443359
2024-03-12T09:10:19.287Z,77.09960938
2024-03-12T09:11:20.144Z,77.47802734
2024-03-12T09:12:20.799Z,77.16674805
2024-03-12T09:13:21.936Z,77.20336914
2024-03-12T09:14:22.806Z,77.16674805
2024-03-12T09:15:26.094Z,77.37426758
2024-03-12T09:16:24.639Z,76.7578125
2024-03-12T09:17:25.334Z,76.4465332
2024-03-12T09:18:27.761Z,76.99584961
2024-03-12T09:19:27.302Z,77.09960938
2024-03-12T09:20:28.469Z,77.20336914
2024-03-12T09:21:30.187Z,77.09960938
2024-03-12T09:22:31.729Z,77.71606445
2024-03-12T09:24:03.255Z,77.78320313
2024-03-12T09:25:03.945Z,77.67944336
2024-03-12T09:26:04.806Z,77.27050781
2024-03-12T09:27:05.772Z,77.47802734
2024-03-12T09:28:06.689Z,77.64892578
2024-03-12T09:29:07.358Z,77.44140625
2024-03-12T09:30:08.248Z,77.23388672
2024-03-12T09:31:09.308Z,77.0324707
2024-03-12T09:32:10.201Z,76.72119141
2024-03-12T09:33:11.177Z,76.61743164
2024-03-12T09:34:12.496Z,76.72119141
2024-03-12T09:35:13.192Z,76.82495117
2024-03-12T09:36:14.692Z,76.82495117
2024-03-12T09:37:15.587Z,77.0324707
2024-03-12T09:38:16.576Z,77.0324707
2024-03-12T09:39:17.503Z,76.92871094
2024-03-12T09:40:18.543Z,76.72119141
2024-03-12T09:41:19.459Z,76.92871094
2024-03-12T09:42:20.574Z,76.92871094
2024-03-12T09:43:21.568Z,77.23388672
2024-03-12T09:44:22.399Z,77.13012695
2024-03-12T09:45:23.157Z,77.23388672
2024-03-12T09:46:23.964Z,77.13012695
2024-03-12T09:47:24.850Z,77.44140625
2024-03-12T09:48:25.658Z,77.0324707
2024-03-12T09:49:26.696Z,77.0324707
2024-03-12T09:50:27.622Z,76.92871094
2024-03-12T09:51:28.522Z,76.92871094
2024-03-12T09:52:29.327Z,77.23388672
2024-03-12T09:53:30.613Z,77.0324707
2024-03-12T09:55:02.030Z,77.13012695
2024-03-12T09:56:05.489Z,77.13012695
2024-03-12T09:57:03.649Z,77.33764648
2024-03-12T09:58:04.620Z,77.13012695
2024-03-12T09:59:05.375Z,76.20849609
2024-03-12T10:00:06.181Z,76.72119141
2024-03-12T10:01:06.978Z,76.41601563
2024-03-12T10:02:07.775Z,76.72119141
2024-03-12T10:03:08.485Z,76.72119141
2024-03-12T10:04:09.299Z,76.72119141
2024-03-12T10:05:09.941Z,75.69580078
2024-03-12T10:06:11.037Z,75.79956055
2024-03-12T10:07:11.555Z,76.00097656
2024-03-12T10:08:12.924Z,75.8972168
2024-03-12T10:09:13.701Z,76.27563477
2024-03-12T10:10:14.399Z,76.27563477
2024-03-12T10:11:14.990Z,75.45166016
2024-03-12T10:12:15.722Z,76.34277344
2024-03-12T10:13:16.780Z,76.30615234
2024-03-12T10:14:16.986Z,75.38452148
2024-03-12T10:15:17.641Z,73.95019531
2024-03-12T10:16:18.317Z,73.40087891
2024-03-12T10:17:18.970Z,72.99194336
2024-03-12T10:18:19.580Z,72.58300781
2024-03-12T10:19:20.222Z,72.27172852
2024-03-12T10:20:21.069Z,71.66137695
2024-03-12T10:21:21.901Z,71.31958008
2024-03-12T10:22:22.971Z,70.22094727
2024-03-12T10:34:06.978Z,0
2024-03-12T10:35:07.766Z,69.88525391
2024-03-12T10:36:39.113Z,70.15991211
2024-03-12T10:37:39.726Z,69.75097656
2024-03-12T10:38:40.429Z,69.95239258
2024-03-12T10:39:41.301Z,69.84863281
2024-03-12T10:40:42.715Z,69.3359375
2024-03-12T10:41:43.398Z,69.26879883
2024-03-12T10:42:45.569Z,69.26879883
2024-03-12T10:43:46.137Z,69.47021484
2024-03-12T10:44:46.822Z,69.26879883
2024-03-12T10:45:47.434Z,69.57397461
2024-03-12T10:46:47.965Z,69.95239258
2024-03-12T10:47:48.577Z,69.75097656
2024-03-12T10:48:49.230Z,69.13452148
2024-03-12T10:49:49.953Z,68.51806641
2024-03-12T10:50:51.702Z,68.92700195
2024-03-12T10:51:52.339Z,68.00537109
2024-03-12T10:52:53.983Z,67.70019531
2024-03-12T10:53:54.872Z,67.49267578
2024-03-12T10:55:05.311Z,66.97998047
2024-03-12T10:55:56.806Z,66.97998047
2024-03-12T10:56:57.964Z,67.39501953
2024-03-12T10:57:58.583Z,67.39501953
2024-03-12T10:59:00.010Z,68.00537109
2024-03-12T11:00:01.434Z,67.49267578
2024-03-12T11:01:02.229Z,67.66967773
2024-03-12T11:02:06.047Z,67.35839844
2024-03-12T11:03:04.416Z,67.15698242
2024-03-12T11:04:06.029Z,67.56591797
2024-03-12T11:05:06.552Z,67.26074219
2024-03-12T11:06:38.677Z,67.56591797
2024-03-12T11:07:39.915Z,67.35839844
2024-03-12T11:08:41.539Z,67.56591797
2024-03-12T11:09:42.360Z,67.63916016
2024-03-12T11:10:44.140Z,67.53540039
2024-03-12T11:11:44.620Z,67.43164063
2024-03-12T11:12:46.007Z,66.61376953
2024-03-12T11:13:46.529Z,66.91894531
2024-03-12T11:14:47.971Z,66.17431641
2024-03-12T11:15:49.683Z,65.55786133
2024-03-12T11:16:50.293Z,65.46020508
2024-03-12T11:17:51.048Z,65.86914063
2024-03-12T11:18:53.191Z,66.17431641
2024-03-12T11:19:53.801Z,66.68701172